sensor_id;sensor_type;location;lat;lon;timestamp;P1;durP1;ratioP1;P2;durP2;ratioP2
60502;SDS011;51448;51.660;5.824;2023-04-28T00:00:36;14.35;;;8.38;;
60502;SDS011;51448;51.660;5.824;2023-04-28T00:03:04;13.82;;;8.32;;
60502;SDS011;51448;51.660;5.824;2023-04-28T00:05:31;12.23;;;7.95;;
60502;SDS011;51448;51.660;5.824;2023-04-28T00:07:59;14.50;;;9.23;;
60502;SDS011;51448;51.660;5.824;2023-04-28T00:10:27;15.30;;;8.68;;
60502;SDS011;51448;51.660;5.824;2023-04-28T00:12:55;15.15;;;9.05;;
60502;SDS011;51448;51.660;5.824;2023-04-28T00:15:22;14.93;;;9.40;;
60502;SDS011;51448;51.660;5.824;2023-04-28T00:17:50;13.45;;;8.82;;
60502;SDS011;51448;51.660;5.824;2023-04-28T00:20:18;14.60;;;8.88;;
60502;SDS011;51448;51.660;5.824;2023-04-28T00:22:46;13.52;;;9.27;;
60502;SDS011;51448;51.660;5.824;2023-04-28T00:25:15;14.05;;;9.05;;
60502;SDS011;51448;51.660;5.824;2023-04-28T00:27:43;15.10;;;9.30;;
60502;SDS011;51448;51.660;5.824;2023-04-28T00:30:10;13.50;;;8.30;;
60502;SDS011;51448;51.660;5.824;2023-04-28T00:32:38;15.20;;;9.68;;
60502;SDS011;51448;51.660;5.824;2023-04-28T00:35:06;12.38;;;8.95;;
60502;SDS011;51448;51.660;5.824;2023-04-28T00:37:35;12.20;;;8.63;;
60502;SDS011;51448;51.660;5.824;2023-04-28T00:40:04;13.27;;;9.02;;
60502;SDS011;51448;51.660;5.824;2023-04-28T00:42:32;13.95;;;9.38;;
60502;SDS011;51448;51.660;5.824;2023-04-28T00:45:00;13.95;;;9.63;;
60502;SDS011;51448;51.660;5.824;2023-04-28T00:47:32;14.75;;;10.15;;
60502;SDS011;51448;51.660;5.824;2023-04-28T00:50:01;15.77;;;10.00;;
60502;SDS011;51448;51.660;5.824;2023-04-28T00:52:34;11.73;;;8.85;;
60502;SDS011;51448;51.660;5.824;2023-04-28T00:55:03;14.75;;;9.65;;
60502;SDS011;51448;51.660;5.824;2023-04-28T00:57:31;14.27;;;9.88;;
60502;SDS011;51448;51.660;5.824;2023-04-28T01:00:00;14.52;;;9.63;;
60502;SDS011;51448;51.660;5.824;2023-04-28T01:02:29;14.18;;;9.10;;
60502;SDS011;51448;51.660;5.824;2023-04-28T01:04:58;12.35;;;9.18;;
60502;SDS011;51448;51.660;5.824;2023-04-28T01:07:27;13.10;;;9.65;;
60502;SDS011;51448;51.660;5.824;2023-04-28T01:09:55;17.52;;;9.65;;
60502;SDS011;51448;51.660;5.824;2023-04-28T01:12:28;15.23;;;9.85;;
60502;SDS011;51448;51.660;5.824;2023-04-28T01:14:57;15.65;;;9.82;;
60502;SDS011;51448;51.660;5.824;2023-04-28T01:17:27;15.90;;;9.95;;
60502;SDS011;51448;51.660;5.824;2023-04-28T01:19:55;15.00;;;10.25;;
60502;SDS011;51448;51.660;5.824;2023-04-28T01:22:23;16.60;;;9.85;;
60502;SDS011;51448;51.660;5.824;2023-04-28T01:24:50;13.52;;;9.85;;
60502;SDS011;51448;51.660;5.824;2023-04-28T01:27:18;13.73;;;10.05;;
60502;SDS011;51448;51.660;5.824;2023-04-28T01:29:45;13.45;;;9.57;;
60502;SDS011;51448;51.660;5.824;2023-04-28T01:32:13;14.25;;;10.45;;
60502;SDS011;51448;51.660;5.824;2023-04-28T01:34:41;13.18;;;9.48;;
60502;SDS011;51448;51.660;5.824;2023-04-28T01:37:08;15.48;;;9.80;;
60502;SDS011;51448;51.660;5.824;2023-04-28T01:39:36;14.40;;;10.82;;
60502;SDS011;51448;51.660;5.824;2023-04-28T01:42:04;14.07;;;10.73;;
60502;SDS011;51448;51.660;5.824;2023-04-28T01:44:33;15.77;;;10.38;;
60502;SDS011;51448;51.660;5.824;2023-04-28T01:47:01;13.93;;;10.15;;
60502;SDS011;51448;51.660;5.824;2023-04-28T01:49:28;13.43;;;10.13;;
60502;SDS011;51448;51.660;5.824;2023-04-28T01:51:56;14.95;;;11.88;;
60502;SDS011;51448;51.660;5.824;2023-04-28T01:54:23;17.98;;;11.57;;
60502;SDS011;51448;51.660;5.824;2023-04-28T01:56:52;16.02;;;11.90;;
60502;SDS011;51448;51.660;5.824;2023-04-28T01:59:21;15.55;;;10.88;;
60502;SDS011;51448;51.660;5.824;2023-04-28T02:01:48;17.02;;;11.32;;
60502;SDS011;51448;51.660;5.824;2023-04-28T02:04:16;15.23;;;11.15;;
60502;SDS011;51448;51.660;5.824;2023-04-28T02:06:44;17.15;;;11.88;;
60502;SDS011;51448;51.660;5.824;2023-04-28T02:09:12;17.60;;;11.52;;
60502;SDS011;51448;51.660;5.824;2023-04-28T02:11:40;18.00;;;12.27;;
60502;SDS011;51448;51.660;5.824;2023-04-28T02:14:07;21.50;;;12.25;;
60502;SDS011;51448;51.660;5.824;2023-04-28T02:16:35;19.38;;;12.05;;
60502;SDS011;51448;51.660;5.824;2023-04-28T02:19:02;21.10;;;12.43;;
60502;SDS011;51448;51.660;5.824;2023-04-28T02:21:30;16.15;;;12.55;;
60502;SDS011;51448;51.660;5.824;2023-04-28T02:23:58;16.35;;;11.57;;
60502;SDS011;51448;51.660;5.824;2023-04-28T02:26:25;17.23;;;12.25;;
60502;SDS011;51448;51.660;5.824;2023-04-28T02:28:53;16.58;;;11.25;;
60502;SDS011;51448;51.660;5.824;2023-04-28T02:31:21;18.52;;;11.88;;
60502;SDS011;51448;51.660;5.824;2023-04-28T02:33:48;18.35;;;12.20;;
60502;SDS011;51448;51.660;5.824;2023-04-28T02:36:16;16.60;;;11.65;;
60502;SDS011;51448;51.660;5.824;2023-04-28T02:38:44;18.20;;;12.88;;
60502;SDS011;51448;51.660;5.824;2023-04-28T02:41:12;15.25;;;12.07;;
60502;SDS011;51448;51.660;5.824;2023-04-28T02:43:41;19.90;;;13.48;;
60502;SDS011;51448;51.660;5.824;2023-04-28T02:46:08;19.85;;;12.07;;
60502;SDS011;51448;51.660;5.824;2023-04-28T02:48:37;18.17;;;12.60;;
60502;SDS011;51448;51.660;5.824;2023-04-28T02:51:06;15.75;;;11.88;;
60502;SDS011;51448;51.660;5.824;2023-04-28T02:53:34;18.70;;;12.52;;
60502;SDS011;51448;51.660;5.824;2023-04-28T02:56:02;17.38;;;12.25;;
60502;SDS011;51448;51.660;5.824;2023-04-28T02:58:32;16.30;;;12.48;;
60502;SDS011;51448;51.660;5.824;2023-04-28T03:01:01;17.35;;;12.50;;
60502;SDS011;51448;51.660;5.824;2023-04-28T03:03:29;17.27;;;13.00;;
60502;SDS011;51448;51.660;5.824;2023-04-28T03:05:56;18.15;;;12.98;;
60502;SDS011;51448;51.660;5.824;2023-04-28T03:08:24;17.35;;;12.43;;
60502;SDS011;51448;51.660;5.824;2023-04-28T03:10:53;17.42;;;12.82;;
60502;SDS011;51448;51.660;5.824;2023-04-28T03:13:21;18.65;;;12.38;;
60502;SDS011;51448;51.660;5.824;2023-04-28T03:15:49;19.45;;;13.90;;
60502;SDS011;51448;51.660;5.824;2023-04-28T03:18:17;19.35;;;13.60;;
60502;SDS011;51448;51.660;5.824;2023-04-28T03:20:45;18.63;;;13.35;;
60502;SDS011;51448;51.660;5.824;2023-04-28T03:23:13;22.10;;;14.05;;
60502;SDS011;51448;51.660;5.824;2023-04-28T03:25:41;20.20;;;13.85;;
60502;SDS011;51448;51.660;5.824;2023-04-28T03:28:09;17.80;;;13.30;;
60502;SDS011;51448;51.660;5.824;2023-04-28T03:30:37;19.95;;;13.80;;
60502;SDS011;51448;51.660;5.824;2023-04-28T03:33:04;18.85;;;14.57;;
60502;SDS011;51448;51.660;5.824;2023-04-28T03:35:32;23.95;;;15.07;;
60502;SDS011;51448;51.660;5.824;2023-04-28T03:38:00;18.90;;;14.18;;
60502;SDS011;51448;51.660;5.824;2023-04-28T03:40:28;18.70;;;15.30;;
60502;SDS011;51448;51.660;5.824;2023-04-28T03:43:22;24.75;;;15.23;;
60502;SDS011;51448;51.660;5.824;2023-04-28T03:46:08;21.65;;;15.18;;
60502;SDS011;51448;51.660;5.824;2023-04-28T03:48:36;22.90;;;16.10;;
60502;SDS011;51448;51.660;5.824;2023-04-28T03:51:03;23.10;;;15.85;;
60502;SDS011;51448;51.660;5.824;2023-04-28T03:53:31;20.48;;;15.82;;
60502;SDS011;51448;51.660;5.824;2023-04-28T03:55:59;20.60;;;15.70;;
60502;SDS011;51448;51.660;5.824;2023-04-28T03:58:26;21.58;;;16.15;;
60502;SDS011;51448;51.660;5.824;2023-04-28T04:00:54;21.58;;;16.33;;
60502;SDS011;51448;51.660;5.824;2023-04-28T04:03:22;21.50;;;16.20;;
60502;SDS011;51448;51.660;5.824;2023-04-28T04:05:55;23.40;;;17.48;;
60502;SDS011;51448;51.660;5.824;2023-04-28T04:08:23;24.30;;;17.35;;
60502;SDS011;51448;51.660;5.824;2023-04-28T04:10:51;22.88;;;17.10;;
60502;SDS011;51448;51.660;5.824;2023-04-28T04:13:21;23.63;;;18.00;;
60502;SDS011;51448;51.660;5.824;2023-04-28T04:15:49;25.15;;;17.13;;
60502;SDS011;51448;51.660;5.824;2023-04-28T04:18:20;26.75;;;17.73;;
60502;SDS011;51448;51.660;5.824;2023-04-28T04:21:17;26.15;;;18.00;;
60502;SDS011;51448;51.660;5.824;2023-04-28T04:23:46;23.85;;;16.25;;
60502;SDS011;51448;51.660;5.824;2023-04-28T04:26:14;26.23;;;18.70;;
60502;SDS011;51448;51.660;5.824;2023-04-28T04:28:41;22.15;;;18.65;;
60502;SDS011;51448;51.660;5.824;2023-04-28T04:31:10;30.35;;;19.25;;
60502;SDS011;51448;51.660;5.824;2023-04-28T04:33:38;24.75;;;17.42;;
60502;SDS011;51448;51.660;5.824;2023-04-28T04:36:06;25.33;;;19.65;;
60502;SDS011;51448;51.660;5.824;2023-04-28T04:38:34;24.45;;;18.35;;
60502;SDS011;51448;51.660;5.824;2023-04-28T04:41:12;23.70;;;18.20;;
60502;SDS011;51448;51.660;5.824;2023-04-28T04:43:39;24.33;;;18.90;;
60502;SDS011;51448;51.660;5.824;2023-04-28T04:46:07;26.70;;;20.15;;
60502;SDS011;51448;51.660;5.824;2023-04-28T04:48:35;27.60;;;19.70;;
60502;SDS011;51448;51.660;5.824;2023-04-28T04:51:02;25.13;;;19.48;;
60502;SDS011;51448;51.660;5.824;2023-04-28T04:53:31;24.17;;;19.63;;
60502;SDS011;51448;51.660;5.824;2023-04-28T04:55:59;23.95;;;18.35;;
60502;SDS011;51448;51.660;5.824;2023-04-28T04:58:29;26.27;;;19.00;;
60502;SDS011;51448;51.660;5.824;2023-04-28T05:01:11;25.60;;;19.08;;
60502;SDS011;51448;51.660;5.824;2023-04-28T05:03:40;27.05;;;20.17;;
60502;SDS011;51448;51.660;5.824;2023-04-28T05:06:08;22.92;;;18.88;;
60502;SDS011;51448;51.660;5.824;2023-04-28T05:08:45;27.52;;;19.25;;
60502;SDS011;51448;51.660;5.824;2023-04-28T05:11:12;23.52;;;18.77;;
60502;SDS011;51448;51.660;5.824;2023-04-28T05:13:40;26.63;;;20.55;;
60502;SDS011;51448;51.660;5.824;2023-04-28T05:16:08;24.38;;;20.50;;
60502;SDS011;51448;51.660;5.824;2023-04-28T05:18:36;30.00;;;20.05;;
60502;SDS011;51448;51.660;5.824;2023-04-28T05:21:03;24.02;;;19.42;;
60502;SDS011;51448;51.660;5.824;2023-04-28T05:23:32;24.92;;;20.13;;
60502;SDS011;51448;51.660;5.824;2023-04-28T05:26:00;23.63;;;19.92;;
60502;SDS011;51448;51.660;5.824;2023-04-28T05:28:29;30.17;;;21.05;;
60502;SDS011;51448;51.660;5.824;2023-04-28T05:31:00;25.50;;;19.77;;
60502;SDS011;51448;51.660;5.824;2023-04-28T05:33:29;25.63;;;19.63;;
60502;SDS011;51448;51.660;5.824;2023-04-28T05:35:58;25.20;;;20.50;;
60502;SDS011;51448;51.660;5.824;2023-04-28T05:38:26;26.42;;;18.95;;
60502;SDS011;51448;51.660;5.824;2023-04-28T05:40:55;24.85;;;19.23;;
60502;SDS011;51448;51.660;5.824;2023-04-28T05:43:23;23.63;;;20.17;;
60502;SDS011;51448;51.660;5.824;2023-04-28T05:45:50;23.63;;;18.30;;
60502;SDS011;51448;51.660;5.824;2023-04-28T05:48:18;24.95;;;19.60;;
60502;SDS011;51448;51.660;5.824;2023-04-28T05:50:46;24.40;;;20.65;;
60502;SDS011;51448;51.660;5.824;2023-04-28T05:53:14;24.40;;;19.20;;
60502;SDS011;51448;51.660;5.824;2023-04-28T05:55:41;21.63;;;18.85;;
60502;SDS011;51448;51.660;5.824;2023-04-28T05:58:10;27.13;;;19.75;;
60502;SDS011;51448;51.660;5.824;2023-04-28T06:00:37;26.23;;;18.38;;
60502;SDS011;51448;51.660;5.824;2023-04-28T06:03:05;23.55;;;18.42;;
60502;SDS011;51448;51.660;5.824;2023-04-28T06:05:35;22.30;;;19.90;;
60502;SDS011;51448;51.660;5.824;2023-04-28T06:08:07;22.48;;;19.30;;
60502;SDS011;51448;51.660;5.824;2023-04-28T06:10:36;23.50;;;19.00;;
60502;SDS011;51448;51.660;5.824;2023-04-28T06:13:04;21.25;;;17.80;;
60502;SDS011;51448;51.660;5.824;2023-04-28T06:15:32;23.75;;;18.08;;
60502;SDS011;51448;51.660;5.824;2023-04-28T06:18:00;23.20;;;17.00;;
60502;SDS011;51448;51.660;5.824;2023-04-28T06:20:28;22.45;;;17.25;;
60502;SDS011;51448;51.660;5.824;2023-04-28T06:22:58;21.70;;;16.73;;
60502;SDS011;51448;51.660;5.824;2023-04-28T06:25:26;24.80;;;17.40;;
60502;SDS011;51448;51.660;5.824;2023-04-28T06:27:53;21.88;;;16.92;;
60502;SDS011;51448;51.660;5.824;2023-04-28T06:30:21;21.00;;;17.25;;
60502;SDS011;51448;51.660;5.824;2023-04-28T06:32:49;22.75;;;17.30;;
60502;SDS011;51448;51.660;5.824;2023-04-28T06:35:17;21.15;;;16.65;;
60502;SDS011;51448;51.660;5.824;2023-04-28T06:37:45;23.02;;;17.17;;
60502;SDS011;51448;51.660;5.824;2023-04-28T06:40:14;21.67;;;17.15;;
60502;SDS011;51448;51.660;5.824;2023-04-28T06:42:47;25.10;;;17.30;;
60502;SDS011;51448;51.660;5.824;2023-04-28T06:45:23;23.55;;;17.38;;
60502;SDS011;51448;51.660;5.824;2023-04-28T06:47:51;21.13;;;16.45;;
60502;SDS011;51448;51.660;5.824;2023-04-28T06:50:22;21.02;;;16.77;;
60502;SDS011;51448;51.660;5.824;2023-04-28T06:52:50;21.55;;;16.98;;
60502;SDS011;51448;51.660;5.824;2023-04-28T06:55:18;21.85;;;16.30;;
60502;SDS011;51448;51.660;5.824;2023-04-28T06:57:45;23.45;;;17.33;;
60502;SDS011;51448;51.660;5.824;2023-04-28T07:00:13;23.13;;;15.93;;
60502;SDS011;51448;51.660;5.824;2023-04-28T07:02:42;19.85;;;16.35;;
60502;SDS011;51448;51.660;5.824;2023-04-28T07:05:10;22.60;;;16.50;;
60502;SDS011;51448;51.660;5.824;2023-04-28T07:07:38;20.95;;;16.77;;
60502;SDS011;51448;51.660;5.824;2023-04-28T07:10:06;22.48;;;17.10;;
60502;SDS011;51448;51.660;5.824;2023-04-28T07:12:37;19.15;;;15.32;;
60502;SDS011;51448;51.660;5.824;2023-04-28T07:15:04;19.08;;;15.43;;
60502;SDS011;51448;51.660;5.824;2023-04-28T07:17:38;21.83;;;16.55;;
60502;SDS011;51448;51.660;5.824;2023-04-28T07:20:05;17.73;;;15.47;;
60502;SDS011;51448;51.660;5.824;2023-04-28T07:22:34;19.58;;;16.45;;
60502;SDS011;51448;51.660;5.824;2023-04-28T07:25:01;19.83;;;14.82;;
60502;SDS011;51448;51.660;5.824;2023-04-28T07:27:30;25.85;;;15.38;;
60502;SDS011;51448;51.660;5.824;2023-04-28T07:29:58;18.17;;;14.02;;
60502;SDS011;51448;51.660;5.824;2023-04-28T07:32:33;19.13;;;15.43;;
60502;SDS011;51448;51.660;5.824;2023-04-28T07:35:00;15.60;;;13.98;;
60502;SDS011;51448;51.660;5.824;2023-04-28T07:37:28;19.13;;;14.95;;
60502;SDS011;51448;51.660;5.824;2023-04-28T07:39:58;21.35;;;13.75;;
60502;SDS011;51448;51.660;5.824;2023-04-28T07:42:28;18.70;;;14.68;;
60502;SDS011;51448;51.660;5.824;2023-04-28T07:44:56;16.98;;;14.80;;
60502;SDS011;51448;51.660;5.824;2023-04-28T07:47:24;18.42;;;14.70;;
60502;SDS011;51448;51.660;5.824;2023-04-28T07:49:53;18.58;;;14.63;;
60502;SDS011;51448;51.660;5.824;2023-04-28T07:52:21;18.75;;;15.05;;
60502;SDS011;51448;51.660;5.824;2023-04-28T07:54:48;16.13;;;13.95;;
60502;SDS011;51448;51.660;5.824;2023-04-28T07:57:16;19.63;;;15.38;;
60502;SDS011;51448;51.660;5.824;2023-04-28T07:59:44;20.05;;;15.10;;
60502;SDS011;51448;51.660;5.824;2023-04-28T08:02:12;15.52;;;13.55;;
60502;SDS011;51448;51.660;5.824;2023-04-28T08:04:41;21.25;;;14.55;;
60502;SDS011;51448;51.660;5.824;2023-04-28T08:07:09;18.73;;;13.52;;
60502;SDS011;51448;51.660;5.824;2023-04-28T08:09:37;18.08;;;14.77;;
60502;SDS011;51448;51.660;5.824;2023-04-28T08:12:07;18.30;;;14.33;;
60502;SDS011;51448;51.660;5.824;2023-04-28T08:14:35;18.40;;;13.95;;
60502;SDS011;51448;51.660;5.824;2023-04-28T08:17:03;18.15;;;14.13;;
60502;SDS011;51448;51.660;5.824;2023-04-28T08:19:30;17.17;;;14.25;;
60502;SDS011;51448;51.660;5.824;2023-04-28T08:21:59;22.02;;;16.35;;
60502;SDS011;51448;51.660;5.824;2023-04-28T08:24:32;18.67;;;15.80;;
60502;SDS011;51448;51.660;5.824;2023-04-28T08:27:03;18.88;;;16.17;;
60502;SDS011;51448;51.660;5.824;2023-04-28T08:29:31;19.65;;;16.38;;
60502;SDS011;51448;51.660;5.824;2023-04-28T08:31:59;18.92;;;16.08;;
60502;SDS011;51448;51.660;5.824;2023-04-28T08:34:31;19.65;;;16.50;;
60502;SDS011;51448;51.660;5.824;2023-04-28T08:36:59;19.77;;;17.50;;
60502;SDS011;51448;51.660;5.824;2023-04-28T08:39:27;20.00;;;17.88;;
60502;SDS011;51448;51.660;5.824;2023-04-28T08:41:56;23.13;;;19.50;;
60502;SDS011;51448;51.660;5.824;2023-04-28T08:44:24;21.63;;;19.30;;
60502;SDS011;51448;51.660;5.824;2023-04-28T08:46:53;24.20;;;19.08;;
60502;SDS011;51448;51.660;5.824;2023-04-28T08:49:28;24.88;;;18.98;;
60502;SDS011;51448;51.660;5.824;2023-04-28T08:52:02;22.45;;;19.58;;
60502;SDS011;51448;51.660;5.824;2023-04-28T08:54:43;22.25;;;19.63;;
60502;SDS011;51448;51.660;5.824;2023-04-28T08:57:15;22.70;;;18.88;;
60502;SDS011;51448;51.660;5.824;2023-04-28T08:59:45;24.38;;;18.52;;
60502;SDS011;51448;51.660;5.824;2023-04-28T09:02:13;21.77;;;18.98;;
60502;SDS011;51448;51.660;5.824;2023-04-28T09:04:41;25.27;;;19.35;;
60502;SDS011;51448;51.660;5.824;2023-04-28T09:07:10;21.45;;;18.30;;
60502;SDS011;51448;51.660;5.824;2023-04-28T09:09:39;22.80;;;19.13;;
60502;SDS011;51448;51.660;5.824;2023-04-28T09:12:07;20.52;;;17.75;;
60502;SDS011;51448;51.660;5.824;2023-04-28T09:14:35;20.40;;;17.38;;
60502;SDS011;51448;51.660;5.824;2023-04-28T09:17:08;19.48;;;17.40;;
60502;SDS011;51448;51.660;5.824;2023-04-28T09:19:40;18.75;;;16.75;;
60502;SDS011;51448;51.660;5.824;2023-04-28T09:22:09;21.30;;;16.08;;
60502;SDS011;51448;51.660;5.824;2023-04-28T09:24:52;21.75;;;16.08;;
60502;SDS011;51448;51.660;5.824;2023-04-28T09:27:25;20.25;;;15.85;;
60502;SDS011;51448;51.660;5.824;2023-04-28T09:29:54;18.17;;;15.07;;
60502;SDS011;51448;51.660;5.824;2023-04-28T09:32:22;19.42;;;15.27;;
60502;SDS011;51448;51.660;5.824;2023-04-28T09:34:51;19.50;;;14.55;;
60502;SDS011;51448;51.660;5.824;2023-04-28T09:37:24;16.77;;;14.55;;
60502;SDS011;51448;51.660;5.824;2023-04-28T09:39:53;17.48;;;15.68;;
60502;SDS011;51448;51.660;5.824;2023-04-28T09:45:09;16.63;;;13.43;;
60502;SDS011;51448;51.660;5.824;2023-04-28T09:47:42;15.15;;;13.63;;
60502;SDS011;51448;51.660;5.824;2023-04-28T09:50:13;15.85;;;14.15;;
60502;SDS011;51448;51.660;5.824;2023-04-28T09:52:44;18.75;;;14.35;;
60502;SDS011;51448;51.660;5.824;2023-04-28T09:55:23;16.25;;;13.13;;
60502;SDS011;51448;51.660;5.824;2023-04-28T09:57:53;15.68;;;13.60;;
60502;SDS011;51448;51.660;5.824;2023-04-28T10:00:22;15.85;;;13.43;;
60502;SDS011;51448;51.660;5.824;2023-04-28T10:02:50;16.10;;;13.82;;
60502;SDS011;51448;51.660;5.824;2023-04-28T10:05:20;16.55;;;13.60;;
60502;SDS011;51448;51.660;5.824;2023-04-28T10:07:49;16.70;;;13.93;;
60502;SDS011;51448;51.660;5.824;2023-04-28T10:10:20;16.48;;;14.45;;
60502;SDS011;51448;51.660;5.824;2023-04-28T10:12:48;16.45;;;14.85;;
60502;SDS011;51448;51.660;5.824;2023-04-28T10:15:17;17.25;;;14.68;;
60502;SDS011;51448;51.660;5.824;2023-04-28T10:17:46;17.27;;;15.48;;
60502;SDS011;51448;51.660;5.824;2023-04-28T10:20:17;17.60;;;15.75;;
60502;SDS011;51448;51.660;5.824;2023-04-28T10:26:14;17.52;;;15.75;;
60502;SDS011;51448;51.660;5.824;2023-04-28T10:28:48;17.90;;;16.02;;
60502;SDS011;51448;51.660;5.824;2023-04-28T10:31:20;18.38;;;16.48;;
60502;SDS011;51448;51.660;5.824;2023-04-28T10:33:49;19.00;;;16.38;;
60502;SDS011;51448;51.660;5.824;2023-04-28T10:39:19;17.95;;;16.13;;
60502;SDS011;51448;51.660;5.824;2023-04-28T10:41:47;19.33;;;17.08;;
60502;SDS011;51448;51.660;5.824;2023-04-28T11:00:44;16.60;;;14.90;;
60502;SDS011;51448;51.660;5.824;2023-04-28T11:06:23;17.23;;;15.43;;
60502;SDS011;51448;51.660;5.824;2023-04-28T11:09:03;18.50;;;16.27;;
60502;SDS011;51448;51.660;5.824;2023-04-28T11:14:30;22.45;;;20.15;;
60502;SDS011;51448;51.660;5.824;2023-04-28T11:17:01;24.75;;;22.00;;
60502;SDS011;51448;51.660;5.824;2023-04-28T11:19:34;27.13;;;24.30;;
60502;SDS011;51448;51.660;5.824;2023-04-28T11:22:04;34.67;;;27.58;;
60502;SDS011;51448;51.660;5.824;2023-04-28T11:24:40;33.10;;;29.42;;
60502;SDS011;51448;51.660;5.824;2023-04-28T11:27:08;38.08;;;31.88;;
60502;SDS011;51448;51.660;5.824;2023-04-28T11:29:36;37.88;;;32.10;;
60502;SDS011;51448;51.660;5.824;2023-04-28T11:32:06;38.75;;;32.60;;
60502;SDS011;51448;51.660;5.824;2023-04-28T11:34:36;36.65;;;32.78;;
60502;SDS011;51448;51.660;5.824;2023-04-28T11:37:04;38.00;;;33.88;;
60502;SDS011;51448;51.660;5.824;2023-04-28T11:39:34;37.00;;;33.08;;
60502;SDS011;51448;51.660;5.824;2023-04-28T11:42:08;36.88;;;32.90;;
60502;SDS011;51448;51.660;5.824;2023-04-28T11:44:37;38.15;;;34.08;;
60502;SDS011;51448;51.660;5.824;2023-04-28T11:47:05;37.40;;;33.17;;
60502;SDS011;51448;51.660;5.824;2023-04-28T11:49:43;37.08;;;33.13;;
60502;SDS011;51448;51.660;5.824;2023-04-28T11:52:12;37.63;;;33.67;;
60502;SDS011;51448;51.660;5.824;2023-04-28T11:54:40;36.47;;;32.67;;
60502;SDS011;51448;51.660;5.824;2023-04-28T11:57:17;35.95;;;32.05;;
60502;SDS011;51448;51.660;5.824;2023-04-28T11:59:46;37.10;;;33.30;;
60502;SDS011;51448;51.660;5.824;2023-04-28T12:02:18;37.63;;;33.70;;
60502;SDS011;51448;51.660;5.824;2023-04-28T12:04:54;35.67;;;31.88;;
60502;SDS011;51448;51.660;5.824;2023-04-28T12:07:22;33.03;;;29.70;;
60502;SDS011;51448;51.660;5.824;2023-04-28T12:10:09;32.90;;;29.45;;
60502;SDS011;51448;51.660;5.824;2023-04-28T12:12:44;34.67;;;30.77;;
60502;SDS011;51448;51.660;5.824;2023-04-28T12:17:46;30.05;;;27.00;;
60502;SDS011;51448;51.660;5.824;2023-04-28T12:20:33;30.98;;;27.02;;
60502;SDS011;51448;51.660;5.824;2023-04-28T12:23:04;32.22;;;28.98;;
60502;SDS011;51448;51.660;5.824;2023-04-28T12:25:44;32.13;;;28.77;;
60502;SDS011;51448;51.660;5.824;2023-04-28T12:28:14;31.80;;;28.52;;
60502;SDS011;51448;51.660;5.824;2023-04-28T12:30:41;31.52;;;28.30;;
60502;SDS011;51448;51.660;5.824;2023-04-28T12:33:22;33.30;;;29.95;;
60502;SDS011;51448;51.660;5.824;2023-04-28T12:35:52;33.78;;;30.33;;
60502;SDS011;51448;51.660;5.824;2023-04-28T12:40:51;34.17;;;30.58;;
60502;SDS011;51448;51.660;5.824;2023-04-28T12:43:19;29.25;;;26.05;;
60502;SDS011;51448;51.660;5.824;2023-04-28T12:45:49;30.77;;;27.52;;
60502;SDS011;51448;51.660;5.824;2023-04-28T12:48:22;29.08;;;25.98;;
60502;SDS011;51448;51.660;5.824;2023-04-28T12:50:51;28.40;;;25.48;;
60502;SDS011;51448;51.660;5.824;2023-04-28T12:53:18;27.23;;;24.42;;
60502;SDS011;51448;51.660;5.824;2023-04-28T12:55:49;26.48;;;23.70;;
60502;SDS011;51448;51.660;5.824;2023-04-28T12:58:16;27.02;;;24.17;;
60502;SDS011;51448;51.660;5.824;2023-04-28T13:00:44;25.38;;;22.73;;
60502;SDS011;51448;51.660;5.824;2023-04-28T13:03:12;27.98;;;23.50;;
60502;SDS011;51448;51.660;5.824;2023-04-28T13:05:42;25.77;;;23.10;;
60502;SDS011;51448;51.660;5.824;2023-04-28T13:08:10;26.67;;;24.02;;
60502;SDS011;51448;51.660;5.824;2023-04-28T13:10:39;27.13;;;24.20;;
60502;SDS011;51448;51.660;5.824;2023-04-28T13:13:06;27.95;;;24.95;;
60502;SDS011;51448;51.660;5.824;2023-04-28T13:15:34;27.52;;;24.63;;
60502;SDS011;51448;51.660;5.824;2023-04-28T13:18:05;26.45;;;23.40;;
60502;SDS011;51448;51.660;5.824;2023-04-28T13:20:32;17.60;;;15.75;;
60502;SDS011;51448;51.660;5.824;2023-04-28T13:23:00;9.27;;;8.05;;
60502;SDS011;51448;51.660;5.824;2023-04-28T13:25:27;9.30;;;6.35;;
60502;SDS011;51448;51.660;5.824;2023-04-28T13:27:56;8.32;;;6.47;;
60502;SDS011;51448;51.660;5.824;2023-04-28T13:30:23;7.85;;;5.55;;
60502;SDS011;51448;51.660;5.824;2023-04-28T13:32:51;8.73;;;6.20;;
60502;SDS011;51448;51.660;5.824;2023-04-28T13:35:23;8.70;;;6.13;;
60502;SDS011;51448;51.660;5.824;2023-04-28T13:38:01;8.88;;;6.75;;
60502;SDS011;51448;51.660;5.824;2023-04-28T13:40:29;10.77;;;8.57;;
60502;SDS011;51448;51.660;5.824;2023-04-28T13:42:58;11.73;;;9.55;;
60502;SDS011;51448;51.660;5.824;2023-04-28T13:45:26;15.10;;;10.15;;
60502;SDS011;51448;51.660;5.824;2023-04-28T13:47:54;14.43;;;10.48;;
60502;SDS011;51448;51.660;5.824;2023-04-28T13:50:22;13.10;;;9.77;;
60502;SDS011;51448;51.660;5.824;2023-04-28T13:52:49;14.88;;;10.13;;
60502;SDS011;51448;51.660;5.824;2023-04-28T13:55:17;11.90;;;9.60;;
60502;SDS011;51448;51.660;5.824;2023-04-28T13:57:45;15.07;;;10.07;;
60502;SDS011;51448;51.660;5.824;2023-04-28T14:00:13;12.05;;;8.93;;
60502;SDS011;51448;51.660;5.824;2023-04-28T14:02:41;10.23;;;8.85;;
60502;SDS011;51448;51.660;5.824;2023-04-28T14:05:10;10.00;;;8.13;;
60502;SDS011;51448;51.660;5.824;2023-04-28T14:07:38;8.50;;;6.72;;
60502;SDS011;51448;51.660;5.824;2023-04-28T14:10:05;9.95;;;8.13;;
60502;SDS011;51448;51.660;5.824;2023-04-28T14:12:33;11.00;;;7.65;;
60502;SDS011;51448;51.660;5.824;2023-04-28T14:15:01;9.02;;;7.20;;
60502;SDS011;51448;51.660;5.824;2023-04-28T14:17:29;10.27;;;6.78;;
60502;SDS011;51448;51.660;5.824;2023-04-28T14:19:59;9.02;;;7.15;;
60502;SDS011;51448;51.660;5.824;2023-04-28T14:22:29;10.18;;;6.60;;
60502;SDS011;51448;51.660;5.824;2023-04-28T14:24:56;9.13;;;6.47;;
60502;SDS011;51448;51.660;5.824;2023-04-28T14:27:25;7.55;;;6.30;;
60502;SDS011;51448;51.660;5.824;2023-04-28T14:29:54;7.82;;;5.93;;
60502;SDS011;51448;51.660;5.824;2023-04-28T14:32:22;8.90;;;6.55;;
60502;SDS011;51448;51.660;5.824;2023-04-28T14:34:50;11.75;;;7.32;;
60502;SDS011;51448;51.660;5.824;2023-04-28T14:37:18;7.68;;;6.00;;
60502;SDS011;51448;51.660;5.824;2023-04-28T14:39:46;8.18;;;6.72;;
60502;SDS011;51448;51.660;5.824;2023-04-28T14:42:15;8.52;;;6.70;;
60502;SDS011;51448;51.660;5.824;2023-04-28T14:44:43;8.35;;;6.43;;
60502;SDS011;51448;51.660;5.824;2023-04-28T14:47:11;8.55;;;7.65;;
60502;SDS011;51448;51.660;5.824;2023-04-28T14:49:39;8.85;;;6.97;;
60502;SDS011;51448;51.660;5.824;2023-04-28T14:52:07;9.23;;;7.10;;
60502;SDS011;51448;51.660;5.824;2023-04-28T14:54:35;8.13;;;6.43;;
60502;SDS011;51448;51.660;5.824;2023-04-28T14:57:03;8.05;;;6.80;;
60502;SDS011;51448;51.660;5.824;2023-04-28T14:59:31;6.55;;;5.30;;
60502;SDS011;51448;51.660;5.824;2023-04-28T15:01:58;6.97;;;4.53;;
60502;SDS011;51448;51.660;5.824;2023-04-28T15:04:26;6.03;;;3.63;;
60502;SDS011;51448;51.660;5.824;2023-04-28T15:06:57;5.40;;;3.87;;
60502;SDS011;51448;51.660;5.824;2023-04-28T15:09:26;4.93;;;3.50;;
60502;SDS011;51448;51.660;5.824;2023-04-28T15:11:54;6.75;;;3.60;;
60502;SDS011;51448;51.660;5.824;2023-04-28T15:14:22;5.13;;;3.80;;